createdAt,value
2018-02-16T00:00:05.342Z,3.29
2018-02-16T00:02:34.558Z,3.22
2018-02-16T00:05:03.022Z,3.16
2018-02-16T00:07:31.413Z,3.08
2018-02-16T00:09:59.786Z,3.03
2018-02-16T00:12:28.201Z,2.97
2018-02-16T00:14:56.651Z,2.85
2018-02-16T00:17:25.021Z,2.74
2018-02-16T00:19:54.191Z,2.63
2018-02-16T00:22:22.592Z,2.54
2018-02-16T00:24:51.744Z,2.47
2018-02-16T00:27:20.140Z,2.41
2018-02-16T00:29:48.538Z,2.33
2018-02-16T00:32:17.683Z,2.30
2018-02-16T00:34:46.053Z,2.28
2018-02-16T00:37:14.449Z,2.27
2018-02-16T00:39:42.825Z,2.33
2018-02-16T00:42:11.239Z,2.30
2018-02-16T00:44:40.393Z,2.26
2018-02-16T00:47:08.773Z,2.35
2018-02-16T00:49:37.165Z,2.37
2018-02-16T00:52:05.558Z,2.31
2018-02-16T00:54:33.929Z,2.27
2018-02-16T00:57:02.401Z,2.29
2018-02-16T00:59:30.772Z,2.25
2018-02-16T01:01:59.293Z,2.22
2018-02-16T01:04:28.427Z,2.17
2018-02-16T01:06:56.789Z,2.16
2018-02-16T01:09:25.254Z,2.21
2018-02-16T01:11:54.396Z,2.16
2018-02-16T01:14:22.881Z,2.16
2018-02-16T01:16:51.248Z,2.11
2018-02-16T01:19:19.702Z,2.11
2018-02-16T01:21:48.833Z,2.12
2018-02-16T01:24:17.232Z,2.15
2018-02-16T01:26:45.630Z,2.05
2018-02-16T01:29:14.010Z,2.00
2018-02-16T01:31:43.247Z,2.01
2018-02-16T01:34:11.610Z,1.92
2018-02-16T01:36:40.741Z,1.88
2018-02-16T01:39:09.247Z,1.81
2018-02-16T01:41:37.681Z,1.78
2018-02-16T01:44:06.082Z,1.76
2018-02-16T01:46:34.457Z,1.76
2018-02-16T01:49:02.841Z,1.73
2018-02-16T01:51:31.235Z,1.72
2018-02-16T01:53:59.670Z,1.68
2018-02-16T01:56:28.070Z,1.68
2018-02-16T01:58:56.473Z,1.74
2018-02-16T02:01:24.869Z,1.74
2018-02-16T02:03:53.236Z,1.73
2018-02-16T02:06:21.633Z,1.66
2018-02-16T02:08:50.789Z,1.58
2018-02-16T02:11:19.246Z,1.61
2018-02-16T02:13:47.643Z,1.57
2018-02-16T02:16:16.022Z,1.58
2018-02-16T02:18:44.423Z,1.63
2018-02-16T02:21:12.813Z,1.72
2018-02-16T02:23:41.225Z,1.73
2018-02-16T02:26:10.396Z,1.75
2018-02-16T02:28:38.777Z,1.75
2018-02-16T02:31:07.137Z,1.76
2018-02-16T02:33:35.532Z,1.75
2018-02-16T02:36:04.705Z,1.75
2018-02-16T02:38:33.078Z,1.77
2018-02-16T02:41:01.492Z,1.73
2018-02-16T02:43:30.658Z,1.69
2018-02-16T02:45:59.041Z,1.61
2018-02-16T02:48:27.586Z,1.55
2018-02-16T02:50:55.983Z,1.47
2018-02-16T02:53:24.408Z,1.39
2018-02-16T02:55:52.814Z,1.43
2018-02-16T02:58:21.213Z,1.32
2018-02-16T03:00:49.585Z,1.25
2018-02-16T03:03:18.014Z,1.21
2018-02-16T03:05:46.537Z,1.18
2018-02-16T03:08:14.901Z,1.13
2018-02-16T03:10:43.295Z,1.13
2018-02-16T03:13:11.841Z,1.08
2018-02-16T03:15:40.259Z,0.99
2018-02-16T03:18:08.673Z,0.97
2018-02-16T03:20:37.046Z,1.02
2018-02-16T03:23:05.557Z,1.03
2018-02-16T03:25:34.724Z,1.06
2018-02-16T03:28:03.101Z,1.01
2018-02-16T03:30:31.473Z,1.10
2018-02-16T03:32:59.912Z,1.16
2018-02-16T03:35:29.048Z,1.12
2018-02-16T03:37:57.442Z,1.08
2018-02-16T03:40:25.897Z,1.03
2018-02-16T03:42:54.301Z,0.96
2018-02-16T03:45:22.716Z,0.87
2018-02-16T03:47:51.106Z,0.93
2018-02-16T03:50:19.600Z,0.86
2018-02-16T03:52:48.013Z,0.96
2018-02-16T03:55:16.379Z,0.95
2018-02-16T03:57:44.750Z,0.97
2018-02-16T04:00:13.266Z,0.95
2018-02-16T04:02:43.152Z,0.96
2018-02-16T04:05:11.537Z,0.88
2018-02-16T04:07:39.925Z,0.86
2018-02-16T04:10:08.315Z,0.81
2018-02-16T04:12:36.716Z,0.78
2018-02-16T04:15:05.088Z,0.76
2018-02-16T04:17:33.492Z,0.78
2018-02-16T04:20:01.926Z,0.72
2018-02-16T04:22:30.293Z,0.65
2018-02-16T04:24:58.672Z,0.59
2018-02-16T04:27:27.067Z,0.57
2018-02-16T04:29:55.467Z,0.50
2018-02-16T04:32:24.640Z,0.50
2018-02-16T04:34:53.149Z,0.44
2018-02-16T04:37:22.409Z,0.40
2018-02-16T04:39:50.833Z,0.36
2018-02-16T04:42:19.994Z,0.36
2018-02-16T04:44:48.371Z,0.30
2018-02-16T04:47:16.782Z,0.29
2018-02-16T04:49:45.161Z,0.31
2018-02-16T04:52:14.312Z,0.36
2018-02-16T04:54:42.700Z,0.37
2018-02-16T04:57:11.077Z,0.32
2018-02-16T04:59:39.577Z,0.30
2018-02-16T05:02:08.030Z,0.28
2018-02-16T05:04:36.439Z,0.28
2018-02-16T05:07:04.856Z,0.29
2018-02-16T05:09:33.290Z,0.36
2018-02-16T05:12:01.750Z,0.43
2018-02-16T05:14:30.171Z,0.43
2018-02-16T05:16:58.537Z,0.44
2018-02-16T05:19:26.978Z,0.46
2018-02-16T05:21:55.396Z,0.44
2018-02-16T05:24:23.987Z,0.52
2018-02-16T05:26:53.343Z,0.63
2018-02-16T05:29:21.731Z,0.59
2018-02-16T05:31:50.172Z,0.49
2018-02-16T05:34:18.783Z,0.53
2018-02-16T05:36:47.185Z,0.55
2018-02-16T05:39:15.565Z,0.61
2018-02-16T05:41:43.993Z,0.61
2018-02-16T05:44:12.351Z,0.74
2018-02-16T05:46:40.754Z,0.95
2018-02-16T05:49:09.130Z,1.01
2018-02-16T05:51:37.491Z,1.19
2018-02-16T05:54:06.663Z,1.35
2018-02-16T05:56:35.050Z,1.48
2018-02-16T05:59:03.460Z,1.19
2018-02-16T06:01:31.825Z,1.02
2018-02-16T06:04:00.993Z,1.04
2018-02-16T06:06:29.395Z,0.92
2018-02-16T06:08:57.797Z,0.90
2018-02-16T06:11:26.221Z,0.94
2018-02-16T06:13:54.598Z,0.84
2018-02-16T06:16:23.049Z,0.85
2018-02-16T06:18:51.470Z,0.87
2018-02-16T06:21:19.830Z,0.85
2018-02-16T06:23:48.233Z,0.82
2018-02-16T06:26:16.593Z,0.92
2018-02-16T06:28:45.113Z,1.26
2018-02-16T06:31:13.505Z,1.35
2018-02-16T06:33:41.911Z,1.51
2018-02-16T06:36:10.268Z,1.73
2018-02-16T06:38:38.670Z,1.59
2018-02-16T06:41:07.090Z,1.53
2018-02-16T06:43:36.247Z,1.49
2018-02-16T06:46:04.635Z,1.47
2018-02-16T06:48:33.041Z,1.45
2018-02-16T06:51:01.405Z,1.59
2018-02-16T06:53:29.861Z,1.51
2018-02-16T06:55:58.236Z,1.46
2018-02-16T06:58:26.657Z,1.46
2018-02-16T07:00:55.804Z,1.49
2018-02-16T07:03:24.211Z,1.57
2018-02-16T07:05:52.595Z,1.61
2018-02-16T07:08:20.993Z,1.66
2018-02-16T07:10:50.170Z,1.63
2018-02-16T07:13:18.625Z,1.66
2018-02-16T07:15:47.042Z,1.82
2018-02-16T07:18:15.413Z,1.91
2018-02-16T07:20:43.824Z,1.87
2018-02-16T07:23:12.953Z,2.03
2018-02-16T07:25:41.326Z,2.04
2018-02-16T07:28:09.813Z,2.05
2018-02-16T07:30:38.197Z,2.00
2018-02-16T07:33:06.579Z,1.89
2018-02-16T07:35:34.963Z,1.84
2018-02-16T07:38:03.332Z,1.81
2018-02-16T07:40:31.761Z,1.86
2018-02-16T07:43:00.909Z,1.94
2018-02-16T07:45:29.283Z,2.03
2018-02-16T07:47:57.676Z,2.09
2018-02-16T07:50:26.063Z,2.12
2018-02-16T07:52:54.460Z,2.20
2018-02-16T07:55:22.825Z,2.33
2018-02-16T07:57:51.244Z,2.40
2018-02-16T08:00:20.388Z,2.38
2018-02-16T08:02:48.752Z,2.49
2018-02-16T08:05:17.153Z,2.69
2018-02-16T08:07:45.583Z,2.70
2018-02-16T08:10:13.960Z,2.75
2018-02-16T08:12:42.337Z,2.77
2018-02-16T08:15:10.752Z,2.92
2018-02-16T08:17:39.124Z,2.92
2018-02-16T08:20:07.528Z,2.95
2018-02-16T08:22:35.896Z,3.05
2018-02-16T08:25:04.268Z,3.18
2018-02-16T08:27:32.710Z,3.23
2018-02-16T08:30:01.090Z,3.23
2018-02-16T08:32:29.452Z,3.31
2018-02-16T08:34:58.607Z,3.35
2018-02-16T08:37:27.010Z,3.50
2018-02-16T08:39:55.393Z,3.70
2018-02-16T08:42:23.792Z,3.59
2018-02-16T08:44:52.951Z,3.64
2018-02-16T08:47:21.313Z,3.72
2018-02-16T08:49:49.730Z,3.96
2018-02-16T08:52:18.133Z,3.80
2018-02-16T08:54:46.509Z,3.91
2018-02-16T08:57:14.877Z,4.07
2018-02-16T08:59:44.068Z,4.29
2018-02-16T09:02:13.206Z,4.35
2018-02-16T09:04:41.628Z,4.55
2018-02-16T09:07:10.037Z,4.43
2018-02-16T09:09:38.393Z,4.71
2018-02-16T09:12:07.565Z,4.90
2018-02-16T09:14:36.792Z,5.04
2018-02-16T09:17:05.940Z,5.04
2018-02-16T09:19:34.338Z,4.95
2018-02-16T09:22:02.802Z,4.93
2018-02-16T09:24:31.167Z,5.55
2018-02-16T09:26:59.555Z,8.32
2018-02-16T09:29:27.945Z,10.60
2018-02-16T09:31:56.318Z,11.94
2018-02-16T09:34:24.723Z,12.34
2018-02-16T09:36:54.298Z,11.88
2018-02-16T09:39:27.341Z,12.59
2018-02-16T09:41:56.492Z,13.05
2018-02-16T09:44:24.862Z,11.72
2018-02-16T09:46:53.238Z,11.32
2018-02-16T09:49:21.815Z,12.46
2018-02-16T09:51:50.201Z,12.05
2018-02-16T09:54:18.576Z,11.93
2018-02-16T09:56:46.985Z,10.97
2018-02-16T09:59:15.426Z,8.74
2018-02-16T10:01:43.795Z,8.48
2018-02-16T10:04:12.971Z,7.75
2018-02-16T10:06:42.124Z,7.53
2018-02-16T10:09:10.501Z,7.21
2018-02-16T10:11:39.005Z,7.09
2018-02-16T10:14:07.415Z,6.95
2018-02-16T10:16:35.801Z,6.78
2018-02-16T10:19:04.218Z,6.62
2018-02-16T10:21:32.597Z,6.59
2018-02-16T10:24:00.994Z,6.64
2018-02-16T10:26:30.173Z,6.60
2018-02-16T10:28:58.552Z,6.69
2018-02-16T10:31:26.925Z,6.38
2018-02-16T10:33:55.329Z,6.27
2018-02-16T10:36:23.768Z,6.17
2018-02-16T10:38:52.252Z,6.22
2018-02-16T10:41:20.668Z,6.32
2018-02-16T10:43:49.115Z,6.44
2018-02-16T10:46:17.493Z,6.36
2018-02-16T10:48:45.925Z,6.41
2018-02-16T10:51:15.070Z,6.44
2018-02-16T10:53:43.441Z,6.30
2018-02-16T10:56:11.845Z,6.39
2018-02-16T10:58:40.262Z,6.39
2018-02-16T11:01:14.973Z,6.45
2018-02-16T11:03:43.377Z,6.41
2018-02-16T11:06:13.346Z,6.43
2018-02-16T11:08:47.197Z,6.39
2018-02-16T11:11:16.376Z,6.41
2018-02-16T11:13:44.784Z,6.25
2018-02-16T11:16:13.205Z,6.44
2018-02-16T11:18:42.211Z,6.39
2018-02-16T11:21:10.662Z,6.54
2018-02-16T11:23:39.029Z,6.42
2018-02-16T11:26:07.450Z,6.67
2018-02-16T11:28:35.913Z,6.68
2018-02-16T11:31:04.312Z,6.85
2018-02-16T11:33:32.685Z,6.76
2018-02-16T11:36:01.109Z,6.87
2018-02-16T11:38:29.478Z,6.82
2018-02-16T11:40:58.621Z,6.87
2018-02-16T11:43:27.245Z,7.13
2018-02-16T11:45:56.404Z,7.05
2018-02-16T11:48:24.781Z,7.09
2018-02-16T11:50:53.190Z,7.18
2018-02-16T11:53:21.661Z,7.33
2018-02-16T11:55:50.111Z,7.23
2018-02-16T11:58:19.059Z,7.18
2018-02-16T12:00:47.744Z,7.29
2018-02-16T12:03:16.921Z,7.34
2018-02-16T12:05:45.338Z,7.99
2018-02-16T12:08:13.760Z,8.13
2018-02-16T12:10:42.133Z,7.94
2018-02-16T12:13:10.672Z,7.45
2018-02-16T12:15:39.086Z,6.80
2018-02-16T12:18:07.448Z,6.47
2018-02-16T12:20:36.135Z,6.39
2018-02-16T12:23:04.508Z,6.28
2018-02-16T12:25:32.877Z,6.13
2018-02-16T12:28:01.277Z,5.91
2018-02-16T12:30:29.648Z,5.94
2018-02-16T12:32:58.054Z,5.87
2018-02-16T12:35:26.522Z,5.90
2018-02-16T12:37:54.894Z,6.31
2018-02-16T12:40:23.281Z,6.85
2018-02-16T12:42:51.659Z,7.05
2018-02-16T12:45:20.048Z,7.44
2018-02-16T12:47:48.525Z,7.48
2018-02-16T12:50:16.990Z,7.66
2018-02-16T12:52:45.570Z,7.90
2018-02-16T12:55:14.151Z,7.66
2018-02-16T12:57:42.512Z,7.83
2018-02-16T13:00:10.890Z,7.94
2018-02-16T13:02:39.365Z,7.98
2018-02-16T13:05:07.757Z,7.75
2018-02-16T13:07:36.460Z,7.91
2018-02-16T13:10:04.826Z,8.01
2018-02-16T13:12:33.201Z,7.98
2018-02-16T13:15:01.598Z,7.79
2018-02-16T13:17:29.981Z,7.50
2018-02-16T13:19:58.466Z,7.62
2018-02-16T13:22:26.868Z,7.72
2018-02-16T13:24:55.230Z,7.81
2018-02-16T13:27:23.632Z,7.48
2018-02-16T13:29:52.026Z,7.60
2018-02-16T13:32:21.272Z,7.61
2018-02-16T13:34:49.650Z,7.56
2018-02-16T13:37:18.085Z,7.65
2018-02-16T13:39:47.334Z,7.63
2018-02-16T13:42:15.749Z,7.73
2018-02-16T13:44:44.108Z,7.86
2018-02-16T13:47:12.573Z,7.81
2018-02-16T13:49:41.009Z,7.94
2018-02-16T13:52:09.374Z,7.72
2018-02-16T13:54:38.503Z,7.65
2018-02-16T13:57:06.928Z,7.68
2018-02-16T13:59:35.308Z,7.77
2018-02-16T14:02:03.710Z,7.47
2018-02-16T14:04:32.893Z,7.71
2018-02-16T14:07:02.057Z,7.70
2018-02-16T14:09:30.443Z,7.95
2018-02-16T14:11:58.909Z,8.07
2018-02-16T14:14:27.362Z,7.51
2018-02-16T14:16:56.484Z,7.46
2018-02-16T14:19:24.932Z,7.53
2018-02-16T14:21:53.342Z,7.61
2018-02-16T14:24:21.701Z,7.17
2018-02-16T14:26:50.065Z,7.02
2018-02-16T14:29:18.486Z,7.42
2018-02-16T14:31:46.900Z,7.43
2018-02-16T14:34:16.037Z,6.99
2018-02-16T14:36:44.705Z,6.97
2018-02-16T14:39:13.081Z,7.02
2018-02-16T14:41:42.300Z,7.26
2018-02-16T14:44:10.732Z,6.73
2018-02-16T14:46:39.903Z,6.46
2018-02-16T14:49:08.299Z,6.40
2018-02-16T14:51:36.690Z,6.29
2018-02-16T14:54:05.148Z,6.25
2018-02-16T14:56:33.527Z,6.37
2018-02-16T14:59:01.930Z,6.50
2018-02-16T15:01:31.110Z,6.55
2018-02-16T15:03:59.498Z,6.59
2018-02-16T15:06:27.876Z,6.52
2018-02-16T15:08:57.055Z,6.56
2018-02-16T15:11:25.509Z,6.49
2018-02-16T15:13:53.867Z,6.38
2018-02-16T15:16:22.273Z,6.20
2018-02-16T15:18:50.669Z,6.13
2018-02-16T15:21:19.068Z,6.25
2018-02-16T15:23:48.215Z,6.45
2018-02-16T15:26:16.636Z,6.38
2018-02-16T15:28:45.046Z,6.22
2018-02-16T15:31:26.328Z,6.18
2018-02-16T15:33:54.724Z,6.05
2018-02-16T15:36:23.169Z,5.98
2018-02-16T15:38:52.338Z,5.87
2018-02-16T15:41:20.746Z,5.81
2018-02-16T15:43:49.949Z,5.83
2018-02-16T15:46:19.084Z,5.71
2018-02-16T15:48:47.469Z,5.56
2018-02-16T15:51:15.848Z,5.51
2018-02-16T15:53:44.237Z,5.44
2018-02-16T15:56:12.638Z,5.37
2018-02-16T15:58:41.045Z,5.31
2018-02-16T16:01:10.207Z,5.20
2018-02-16T16:03:39.419Z,5.11
2018-02-16T16:06:07.822Z,5.02
2018-02-16T16:08:36.968Z,4.89
2018-02-16T16:11:05.361Z,4.84
2018-02-16T16:13:33.717Z,4.71
2018-02-16T16:16:02.189Z,4.57
2018-02-16T16:18:30.557Z,4.49
2018-02-16T16:20:58.954Z,4.40
2018-02-16T16:23:27.345Z,4.33
2018-02-16T16:25:55.814Z,4.22
2018-02-16T16:28:24.189Z,4.12
2018-02-16T16:30:52.661Z,4.01
2018-02-16T16:33:21.063Z,4.00
2018-02-16T16:35:49.515Z,3.91
2018-02-16T16:38:17.869Z,3.83
2018-02-16T16:40:47.041Z,3.75
2018-02-16T16:43:15.442Z,3.67
2018-02-16T16:45:44.577Z,3.63
2018-02-16T16:48:12.965Z,3.62
2018-02-16T16:50:41.425Z,3.57
2018-02-16T16:53:09.828Z,3.53
2018-02-16T16:55:38.245Z,3.54
2018-02-16T16:58:06.661Z,3.46
2018-02-16T17:00:35.080Z,3.35
2018-02-16T17:03:03.449Z,3.20
2018-02-16T17:05:31.833Z,3.12
2018-02-16T17:08:00.205Z,3.11
2018-02-16T17:10:28.607Z,3.73
2018-02-16T17:12:57.027Z,3.17
2018-02-16T17:15:25.409Z,3.03
2018-02-16T17:17:54.549Z,2.93
2018-02-16T17:20:22.983Z,2.85
2018-02-16T17:22:51.341Z,2.77
2018-02-16T17:25:20.509Z,2.75
2018-02-16T17:27:48.948Z,2.74
2018-02-16T17:30:17.344Z,2.69
2018-02-16T17:32:45.812Z,2.64
2018-02-16T17:35:14.174Z,2.63
2018-02-16T17:37:42.751Z,2.59
2018-02-16T17:40:11.138Z,2.60
2018-02-16T17:42:39.514Z,2.68
2018-02-16T17:45:07.907Z,2.71
2018-02-16T17:47:36.344Z,2.77
2018-02-16T17:50:05.469Z,2.72
2018-02-16T17:55:31.418Z,2.68
2018-02-16T17:57:59.794Z,2.65
2018-02-16T18:00:28.198Z,2.63
2018-02-16T18:02:56.562Z,2.64
2018-02-16T18:05:24.941Z,2.63
2018-02-16T18:07:53.333Z,2.63
2018-02-16T18:10:21.746Z,2.63
2018-02-16T18:12:50.882Z,2.63
2018-02-16T18:15:19.270Z,2.62
2018-02-16T18:17:47.678Z,2.66
2018-02-16T18:20:16.117Z,2.67
2018-02-16T18:22:44.514Z,2.69
2018-02-16T18:25:12.892Z,2.71
2018-02-16T18:27:41.362Z,2.68
2018-02-16T18:30:09.797Z,2.70
2018-02-16T18:32:38.969Z,2.65
2018-02-16T18:35:07.342Z,2.71
2018-02-16T18:37:35.754Z,2.57
2018-02-16T18:40:04.898Z,2.51
2018-02-16T18:42:33.268Z,2.47
2018-02-16T18:45:01.766Z,2.42
2018-02-16T18:47:30.142Z,2.38
2018-02-16T18:49:58.616Z,2.30
2018-02-16T18:52:27.009Z,2.22
2018-02-16T18:54:55.424Z,2.16
2018-02-16T18:57:24.566Z,2.06
2018-02-16T18:59:52.978Z,2.00
2018-02-16T19:02:21.380Z,1.98
2018-02-16T19:04:50.523Z,1.88
2018-02-16T19:07:18.905Z,1.85
2018-02-16T19:09:47.293Z,1.78
2018-02-16T19:12:15.673Z,1.86
2018-02-16T19:14:44.073Z,1.86
2018-02-16T19:17:12.468Z,1.91
2018-02-16T19:19:41.646Z,2.00
2018-02-16T19:22:10.054Z,2.10
2018-02-16T19:24:39.212Z,2.20
2018-02-16T19:27:07.610Z,2.24
2018-02-16T19:29:36.002Z,2.30
2018-02-16T19:32:05.146Z,2.30
2018-02-16T19:34:33.581Z,2.33
2018-02-16T19:37:01.988Z,2.23
2018-02-16T19:39:30.377Z,2.16
2018-02-16T19:41:58.793Z,2.05
2018-02-16T19:44:27.206Z,2.00
2018-02-16T19:46:56.346Z,1.89
2018-02-16T19:49:24.773Z,1.75
2018-02-16T19:51:55.103Z,1.67
2018-02-16T19:54:24.337Z,1.60
2018-02-16T19:56:52.710Z,1.67
2018-02-16T19:59:21.108Z,1.67
2018-02-16T20:01:49.529Z,1.70
2018-02-16T20:04:18.768Z,1.73
2018-02-16T20:06:47.133Z,1.66
2018-02-16T20:09:15.526Z,1.64
2018-02-16T20:11:43.929Z,1.64
2018-02-16T20:14:12.340Z,1.61
2018-02-16T20:16:41.576Z,1.57
2018-02-16T20:19:09.965Z,1.71
2018-02-16T20:21:38.338Z,1.82
2018-02-16T20:24:06.725Z,1.97
2018-02-16T20:26:35.113Z,2.02
2018-02-16T20:29:03.639Z,2.13
2018-02-16T20:31:32.013Z,2.15
2018-02-16T20:34:01.258Z,2.24
2018-02-16T20:36:29.672Z,2.28
2018-02-16T20:38:58.170Z,2.16
2018-02-16T20:41:27.298Z,2.20
2018-02-16T20:43:55.705Z,2.18
2018-02-16T20:46:24.105Z,2.12
2018-02-16T20:48:52.514Z,2.20
2018-02-16T20:51:21.708Z,2.28
2018-02-16T20:53:50.875Z,2.30
2018-02-16T20:56:19.325Z,2.29
2018-02-16T20:58:47.932Z,2.29
2018-02-16T21:01:16.580Z,2.14
2018-02-16T21:03:45.015Z,2.05
2018-02-16T21:06:13.412Z,2.07
2018-02-16T21:08:41.809Z,2.10
2018-02-16T21:11:10.237Z,2.19
2018-02-16T21:13:38.695Z,2.36
2018-02-16T21:16:07.067Z,2.24
2018-02-16T21:18:35.456Z,2.27
2018-02-16T21:21:03.933Z,2.24
2018-02-16T21:23:32.301Z,2.21
2018-02-16T21:26:00.716Z,2.12
2018-02-16T21:28:29.149Z,1.97
2018-02-16T21:30:57.529Z,1.99
2018-02-16T21:33:25.962Z,1.95
2018-02-16T21:35:54.409Z,1.98
2018-02-16T21:38:22.849Z,2.00
2018-02-16T21:40:51.361Z,1.92
2018-02-16T21:43:19.748Z,1.74
2018-02-16T21:45:48.204Z,1.63
2018-02-16T21:48:16.642Z,1.56
2018-02-16T21:50:45.036Z,1.43
2018-02-16T21:53:14.228Z,1.36
2018-02-16T21:55:43.366Z,1.31
2018-02-16T21:58:11.746Z,1.25
2018-02-16T22:00:40.196Z,1.22
2018-02-16T22:03:09.385Z,1.18
2018-02-16T22:05:38.530Z,1.12
2018-02-16T22:08:07.109Z,1.09
2018-02-16T22:10:35.513Z,1.05
2018-02-16T22:13:03.873Z,1.03
2018-02-16T22:15:32.238Z,0.97
2018-02-16T22:18:00.674Z,0.98
2018-02-16T22:20:29.808Z,0.90
2018-02-16T22:22:58.209Z,0.88
2018-02-16T22:25:26.616Z,0.81
2018-02-16T22:27:55.049Z,0.80
2018-02-16T22:30:23.457Z,0.77
2018-02-16T22:32:51.825Z,0.81
2018-02-16T22:35:20.229Z,0.78
2018-02-16T22:37:48.698Z,0.73
2018-02-16T22:40:17.150Z,0.63
2018-02-16T22:42:45.560Z,0.49
2018-02-16T22:45:13.923Z,0.43
2018-02-16T22:47:42.320Z,0.40
2018-02-16T22:50:10.705Z,0.42
2018-02-16T22:52:39.143Z,0.50
2018-02-16T22:55:07.948Z,0.62
2018-02-16T22:57:36.310Z,0.70
2018-02-16T23:00:04.725Z,0.69
2018-02-16T23:02:33.086Z,0.65
2018-02-16T23:05:01.508Z,0.66
2018-02-16T23:07:30.745Z,0.67
2018-02-16T23:09:59.144Z,0.71
2018-02-16T23:12:27.549Z,0.74
2018-02-16T23:14:55.913Z,0.72
2018-02-16T23:17:24.365Z,0.70
2018-02-16T23:19:52.847Z,0.66
2018-02-16T23:22:21.217Z,0.67
2018-02-16T23:24:49.617Z,0.65
2018-02-16T23:27:18.000Z,0.64
2018-02-16T23:29:46.413Z,0.60
2018-02-16T23:32:15.596Z,0.56
2018-02-16T23:34:43.974Z,0.52
2018-02-16T23:37:12.369Z,0.50
2018-02-16T23:39:40.849Z,0.50
2018-02-16T23:42:10.030Z,0.51
2018-02-16T23:44:38.342Z,0.45
2018-02-16T23:47:06.701Z,0.29
2018-02-16T23:49:35.088Z,0.26
2018-02-16T23:52:03.491Z,0.27
2018-02-16T23:54:31.979Z,0.33
2018-02-16T23:57:00.355Z,0.23
2018-02-16T23:59:28.756Z,0.14
